Pagina principale
METAR-TAF:

METAR-TAF

Aeroporti :

Spangdahlem, Germania

latitudine: 49-59N, longitudine: 006-42E, altezza: 365 m

Osservazione

Il bollettino è stato emesso 8 minuti fa, alle 16:56 UTC
Vento 11 kt da est/nord-est
Temperature 19°C
Umidità 40%
Pressione 1020 hPa
Visibilità 10 km o più
Cielo sereno

METAR: ETAD 311656Z AUTO 06011KT 9999 CLR 19/05 A3012 RMK AO2 SLP186 T01920049 $

Ora: 19:04 (17:04 UTC)

Previsione

Il bollettino è stato emesso 7 ore e 4 minuti fa, alle 10:00 UTC
Previsione valida dal 31 alle 10 UTC al 01 alle 16 UTC
Vento 10 kt da est/nord-est con raffiche fino a 18 kt
Visibilità 10 km o più
Nubi sparse ad un'altezza di 5000 ft
Evoluzione graduale
dal 31 alle 18 UTC al 31 alle 19 UTC
Vento 9 kt da est
Visibilità 10 km o più
Nubi sparse ad un'altezza di 5000 ft

TAF: ETAD 311000Z 3110/0116 07010G18KT 9999 SCT050 QNH3016INS BECMG 3118/3119 08009KT 9999 SCT050 QNH3014INS TX22/3115Z TN10/0104Z

Osservazioni e previsioni meteorologiche di più di 4000 aeroporti (messaggi METAR e TAF).

Le stazioni disponibili sono rappresentate dai dischi gialli e rossi sulla carta.

Puntare il mouse per vedere il nome della stazione.

Clicca sopra per visualizzare le osservazioni e previsioni meteorologiche.

Per cambiare la mappa : fare clic sui pulsanti verdi con una croce nera per ingrandire, il pulsante verde con un trattino per diminuire, o sulla freccia verde per le mappe adiacenti.


METAR-TAF: